Dernières infos :  

13/08/2017  Mise à jour des tableaux d'analyses décadaires
02/08/2017 Mise en ligne de la synthèse climatologique de Juillet 2017 : 
CLIQUEZ ICI
01/08/2017  Mise à jour des tableaux d'analyses décadaires, mensuelles et annuelles : rubrique climatologie

31/07/2017 Vidéo du violent orage de dimanche soir 30/07 : CLIQUEZ ICI   

Si l'entête du tableau ne s'affiche pas correctement, => actualisez la page (F5 avec Internet Explorer, Chrome...).
Utilisez l'ascenseur sur la droite des lignes du tableau pour faire défiler verticalement les jours du mois.

TABLEAU DES DONNEES COMPLETES NOAA d'AVRIL 2017

DATE TEMPERATURE
sous abri
TEMPARATURE 
au sol
VENT  et  Indice de Refroidissement Eolien  PRECIPITATIONS (en mm/m2)
et Intensité
PRESSION ATMOSPHERIQUE (en hPa) HUMIDITE de l'AIR RADIATIONS SOLAIRES (en W/m2)
Mini Moy. Maxi Mini Moy. Maxi Moyen Rafale I.R.E.
Minii
Précip. jour Cumul mois Intensité Maxi Mini Moy. Maxi Mini Moy. Maxi Pic maxi du jour Total jour
01/04/17 8.2° 11.1° 14.8° 7.2° 10.7° 15.6° 6.4km/h dir SSE 25.7km/h dir S 6.4° 2 2 5.4mm/h 1012.1 1014.2 1015.6 48% 75.6% 92% 891 21 091
02/04/17 7.6° 10.4° 14.3° 6.1° 10.5° 18.3° 6.4km/h dir NO 29km/h dir NO 7.4° 2.6 4.6 1.4mm/h 1015.1 1017.4 1021 74% 87.7% 96% 981 25 503
03/04/17 4.8° 12.9° 20.1° 2.2° 12.5° 24.4° 5.8km/h dir ONO 25.7km/h dir ONO 4.2° 0 4.6 1020 1021.2 1022.5 57% 76.6% 96% 807 60 864
04/04/17 5.3° 12.6° 19.1° 2.8° 12° 23.9° 7.4km/h dir ONO 32.2km/h dir ONO 5.3° 0 4.6 1019.9 1021.2 1022.4 40% 67.6% 94% 775 64 103
05/04/17 5.7° 11.8° 17.9° 1.7° 11.3° 21.7° 11.3km/h dir NO 45.1km/h dir NNE 5.1° 0 4.6 1019.5 1020.8 1022.7 44% 67% 87% 988 61 057
06/04/17 6.1° 10.6° 15.4° 4.4° 10.9° 18.9° 15.1km/h dir NO 45.1km/h dir NO 3.8° 0 4.6 1020.5 1022 1023.2 51% 71.7% 89% 768 64 328
07/04/17 0.9° 10° 18.5° -0.6° 9.9° 22.2° 5.6km/h dir ONO 25.7km/h dir NNE 0.9° 0 4.6 1020.9 1022.7 1024.1 46% 71.6% 94% 777 66 390
08/04/17 3.3° 12.4° 21.5° 0.6° 11.6° 25° 2.9km/h dir ONO 17.7km/h dir ONO 2.3° 0 4.6 1019.6 1021.2 1022.7 46% 73.6% 95% 789 67 520
09/04/17 7.9° 16.1° 25.4° 3.9° 14.6° 28.3° 5.3km/h dir SE 29km/h dir S 7.8° 0 4.6 1020.2 1021.7 1023 29% 63.8% 92% 788 67 761
10/04/17 8.4° 17.2° 25.8° 5.6° 16.5° 28.9° 5km/h dir S 33.8km/h dir N 8.4° 0.2 4.8 1018.4 1020.7 1022 37% 59.2% 83% 795 66 248
11/04/17 6.1° 11.9° 17.3° 3.3° 11.8° 21.1° 8.4km/h dir NO 30.6km/h dir ONO 0 4.8 1021.5 1022.4 1023.6 52% 71.5% 93% 847 66 074
12/04/17 1.9° 10.9° 20° 10.5° 23.3° 2.7km/h dir ONO 14.5km/h dir O 1.9° 0 4.8 1016.8 1020.4 1022.7 36% 67.4% 94% 816 69 606
13/04/17 3.8° 12.1° 19.9° 2.2° 11.8° 23.9° 4km/h dir S 22.5km/h dir N 3.8° 0 4.8 1014.8 1016.8 1018.4 46% 71% 91% 803 70 034
14/04/17 4.3° 12.3° 19.6° 2.8° 12.1° 23.3° 3.7km/h dir NNE 24.1km/h dir O 4.3° 0 4.8 1015.4 1016.1 1016.9 47% 72.5% 95% 889 70 328
15/04/17 7.8° 12.2° 17.3° 12.5° 21.7° 6.1km/h dir ONO 24.1km/h dir ONO 7.6° 0 4.8 1016.5 1018.4 1021.6 57% 75.4% 89% 932 46 436
16/04/17 9.6° 12.1° 15.5° 5.6° 12.3° 22.2° 5.5km/h dir ONO 30.6km/h dir ONO 9.8° 0 4.8 1021.1 1022 1022.9 54% 73.7% 90% 1090 34 596
17/04/17 1.8° 9.6° 15.9° 9.5° 20.6° 3.9km/h dir ONO 24.1km/h dir NO 1.8° 0.6 5.4 2.6mm/h 1018.5 1020.1 1022.4 51% 74.6% 95% 1056 48 023
18/04/17 4.6° 8.8° 12.7° 3.9° 9.3° 16.7° 13.8km/h dir NO 43.5km/h dir ONO 1.9° 0 5.4 1019.4 1021.9 1025.2 34% 63.6% 91% 919 75 211
19/04/17 0.6° 6.2° 12.1° -1.1° 6.6° 16.7° 13.4km/h dir NNE 49.9km/h dir N -2.3° 0 5.4 1025.2 1026.8 1028.9 39% 65.5% 89% 942 74 186
20/04/17 0.1° 6.7° 13.2° -1.1° 7.3° 16.7° 12.9km/h dir NO 38.6km/h dir NNE -3.6° 0 5.4 1028.4 1029.5 1031.5 36% 59.7% 86% 837 75 413
21/04/17 -1.4° 8.1° 16.8° -4.4° 7.7° 20.6° 4.7km/h dir ONO 20.9km/h dir O -2.2° 0 5.4 1027.2 1029.3 1031.3 29% 56.1% 86% 828 75 225
22/04/17 -0.3° 10.1° 19.2° -2.2° 10.4° 23.9° 5.6km/h dir E 27.4km/h dir NNE -0.2° 0 5.4 1020.8 1024.4 1027.3 39% 64.1% 92% 830 74 521
23/04/17 5.4° 11.4° 17.3° 2.2° 11.7° 21.7° 10.3km/h dir NO 32.2km/h dir NO 4.4° 0 5.4 1018.5 1020.6 1022.2 42% 65.7% 91% 847 76 313
24/04/17 0.7° 12.8° 23.6° -1.1° 12.8° 26.7° 7.7km/h dir S 43.5km/h dir SE 0.2° 0 5.4 1010.1 1014.9 1018.8 33% 62.7% 93% 837 75 151
25/04/17 5.3° 11.7° 15.7° 11.3° 14.4° 11.6km/h dir SSE 53.1km/h dir S 2.8° 34.2 39.6 20.4mm/h 1004.2 1008.1 1010.5 60% 82.4% 95% 250 11 575
26/04/17 2.9° 4.8° 7.2° 2.8° 5.1° 9.4° 7.2km/h dir NO 27.4km/h dir NNE 0.4° 9 48.6 5.2mm/h 1007.2 1010.7 1015.4 85% 92.3% 96% 306 14 594
27/04/17 3.7° 6.1° 10.6° 3.3° 7.3° 16.7° 8km/h dir NO 29km/h dir NO 1.7° 0.6 49.2 3.4mm/h 1013.8 1015.2 1016.3 63% 84.4% 94% 1118 56 687
28/04/17 2.3° 7.2° 13.1° 7.5° 18.3° 6.1km/h dir ONO 27.4km/h dir N 0.8° 0.4 49.6 1014.4 1016.6 1018.6 43% 73.4% 93% 1162 58 136
29/04/17 -0.4° 18.7° -2.2° 9.1° 22.2° 2.9km/h dir ENE 25.7km/h dir SSE -0.4° 0 49.6 1011.6 1015.6 1018.9 35% 69.2% 95% 863 79 784
30/04/17 7.9° 13.6° 20.1° 13.7° 23.9° 12.4km/h dir S 46.7km/h dir 0 7.1° 5.8 55.4 4.8mm/h 1003.8 1008.4 1012.3 38% 60.1% 90% 1202 73 749

RETOUR ACCUEIL


Date de création : 01/05/2017 : 11:38
Catégorie : ANNEE 2017 - MOIS PASSES - AVRIL 2017
Page lue 148 fois


Réactions à cet article

Personne n'a encore laissé de commentaire.
Soyez donc le premier !